Time;durP1;ratioP1;P1;durP2;ratioP2;P2;SDS_P1;SDS_P2;PMS_P1;PMS_P2;Temp;Humidity;BMP_temperature;BMP_pressure;BME280_temperature;BME280_humidity;BME280_pressure;Samples;Min_cycle;Max_cycle;Signal;HPM_P1;HPM_P2
2022/09/25 11:45:35;;;;;;;;;1.00;1.00;;;;;20.07;39.03;101187.00;5073241;28;45369;-64
2022/09/25 11:48:31;;;;;;;;;1.50;0.25;;;;;20.60;38.55;101201.81;5055191;28;45338;-63
2022/09/25 11:51:15;;;;;;;;;2.25;0.25;;;;;21.06;37.05;101203.50;5057913;28;45362;-63
2022/09/25 11:54:02;;;;;;;;;0.25;0.25;;;;;21.41;36.50;101201.50;5052758;28;45268;-62
2022/09/25 11:56:38;;;;;;;;;1.25;1.25;;;;;21.77;36.80;101196.66;5053147;28;46204;-62
2022/09/25 11:59:17;;;;;;;;;0.25;0.25;;;;;22.15;36.96;101205.13;5055421;28;45382;-59
2022/09/25 12:01:49;;;;;;;;;0.00;0.00;;;;;22.44;35.97;101188.94;5055078;28;45391;-63
2022/09/25 12:04:14;;;;;;;;;0.00;0.00;;;;;22.75;35.21;101187.09;5054774;28;45418;-63
2022/09/25 12:07:02;;;;;;;;;0.00;0.00;;;;;22.67;35.51;101205.13;5055141;28;45422;-65
2022/09/25 12:09:49;;;;;;;;;0.50;0.50;;;;;22.79;34.64;101198.63;5055060;28;45351;-61
2022/09/25 12:12:23;;;;;;;;;0.00;0.00;;;;;23.16;33.43;101188.78;5055149;28;45238;-64
2022/09/25 12:15:08;;;;;;;;;0.00;0.00;;;;;23.60;33.43;101183.84;5055300;28;45378;-64
2022/09/25 12:17:52;;;;;;;;;0.50;0.50;;;;;23.90;32.90;101178.22;5054593;28;45504;-64
2022/09/25 12:20:29;;;;;;;;;1.50;0.00;;;;;24.29;32.25;101180.91;5054256;28;45338;-64
2022/09/25 12:23:18;;;;;;;;;0.25;0.25;;;;;24.60;31.69;101176.91;5054941;28;45507;-59
2022/09/25 12:25:49;;;;;;;;;0.00;0.00;;;;;24.60;32.06;101187.00;5054927;28;45315;-58
2022/09/25 12:28:40;;;;;;;;;0.00;0.00;;;;;25.41;30.03;101166.97;5054817;28;45354;-61
2022/09/25 12:31:38;;;;;;;;;0.75;0.00;;;;;26.45;27.77;101176.31;5054344;28;45338;-57
2022/09/25 12:34:42;;;;;;;;;0.75;0.75;;;;;27.50;27.06;101165.72;5033150;28;45236;-59
2022/09/25 12:37:41;;;;;;;;;0.00;0.00;;;;;28.87;26.46;101160.28;5044537;28;45363;-56
2022/09/25 12:40:24;;;;;;;;;1.00;0.00;;;;;29.91;25.31;101141.34;5054741;28;45333;-62
2022/09/25 12:42:59;;;;;;;;;0.00;0.00;;;;;30.94;22.77;101155.31;5054630;28;45243;-60
2022/09/25 12:45:42;;;;;;;;;0.50;0.50;;;;;31.85;21.82;101131.63;5056987;28;45343;-60
2022/09/25 12:48:13;;;;;;;;;0.00;0.00;;;;;32.56;21.07;101151.84;5074393;28;45375;-60
2022/09/25 12:51:04;;;;;;;;;0.00;0.00;;;;;32.77;21.60;101157.34;5073744;28;45425;-61
2022/09/25 12:53:42;;;;;;;;;0.33;0.00;;;;;32.41;21.23;101149.16;5074569;28;45339;-61
2022/09/25 12:56:15;;;;;;;;;0.00;0.00;;;;;32.71;21.65;101152.59;5064631;28;45362;-59
2022/09/25 12:59:16;;;;;;;;;0.00;0.00;;;;;32.72;20.85;101146.00;5043045;28;45956;-59
2022/09/25 13:01:41;;;;;;;;;0.25;0.00;;;;;32.36;21.63;101142.53;5016723;28;45596;-61
2022/09/25 13:04:24;;;;;;;;;0.00;0.00;;;;;31.38;21.55;101098.97;5058832;28;45354;-60
2022/09/25 13:07:02;;;;;;;;;2.00;0.00;;;;;30.87;22.40;101143.28;5052394;28;45360;-58
2022/09/25 13:09:41;;;;;;;;;0.00;0.00;;;;;30.18;23.30;101145.44;5060838;28;45410;-58
2022/09/25 13:12:17;;;;;;;;;0.00;0.00;;;;;29.76;23.21;101134.91;5060050;28;46403;-65
2022/09/25 13:14:54;;;;;;;;;1.25;0.00;;;;;29.47;23.67;101137.53;5060812;28;45316;-65
2022/09/25 13:17:20;;;;;;;;;2.50;0.00;;;;;29.42;23.70;101126.19;5060777;28;45366;-60
2022/09/25 13:19:46;;;;;;;;;0.00;0.00;;;;;29.98;23.65;101116.59;5060177;28;45344;-59
2022/09/25 13:22:19;;;;;;;;;0.67;0.00;;;;;31.05;22.49;101123.50;5060939;28;45381;-61
2022/09/25 13:24:55;;;;;;;;;0.00;0.00;;;;;32.00;21.39;101126.00;5060649;28;45344;-63
2022/09/25 13:27:23;;;;;;;;;0.00;0.00;;;;;32.89;20.46;101127.06;5060729;28;45350;-62
2022/09/25 13:29:57;;;;;;;;;1.00;0.00;;;;;33.52;19.77;101119.41;5059666;28;45375;-60
2022/09/25 13:32:29;;;;;;;;;0.75;0.50;;;;;33.18;19.83;101115.63;5060263;28;46325;-61
2022/09/25 13:34:57;;;;;;;;;0.00;0.00;;;;;32.38;20.64;101132.94;5060434;28;45511;-60
2022/09/25 13:37:28;;;;;;;;;0.00;0.00;;;;;31.37;21.34;101124.94;5060617;28;45343;-58
2022/09/25 13:42:42;;;;;;;;;0.00;0.00;;;;;29.86;22.86;101126.38;5059984;28;45797;-61
2022/09/25 13:45:20;;;;;;;;;0.00;0.00;;;;;29.22;23.70;101118.34;5059887;28;45375;-59
2022/09/25 13:48:01;;;;;;;;;1.00;0.00;;;;;28.71;23.72;101122.56;5060024;28;45339;-59
2022/09/25 13:50:32;;;;;;;;;0.00;0.00;;;;;28.31;25.56;101122.69;5059580;28;45517;-59
2022/09/25 13:53:21;;;;;;;;;0.00;0.00;;;;;27.99;24.90;101112.53;5060223;28;45407;-63
2022/09/25 13:55:46;;;;;;;;;0.00;0.00;;;;;27.68;25.68;101120.66;5059870;28;45392;-61
2022/09/25 13:58:16;;;;;;;;;0.25;0.00;;;;;27.40;25.89;101120.94;5060503;28;45506;-61
2022/09/25 14:00:54;;;;;;;;;1.75;0.75;;;;;27.07;26.82;101120.03;5059966;28;45417;-54
2022/09/25 14:03:31;;;;;;;;;0.00;0.00;;;;;26.69;26.78;101117.81;5059828;28;46663;-59
2022/09/25 14:05:58;;;;;;;;;0.25;0.25;;;;;26.39;27.32;101124.69;5059663;28;45373;-48
2022/09/25 14:08:26;;;;;;;;;0.00;0.00;;;;;25.97;27.63;101119.06;5059299;28;45292;-54
2022/09/25 14:10:55;;;;;;;;;0.75;0.75;;;;;25.62;28.04;101114.50;5060387;28;45498;-53
2022/09/25 14:13:24;;;;;;;;;0.00;0.00;;;;;25.36;28.62;101113.53;5060027;28;46077;-53
2022/09/25 14:15:51;;;;;;;;;1.50;0.00;;;;;25.05;29.49;101113.91;5059812;28;45316;-61
2022/09/25 14:18:21;;;;;;;;;0.00;0.00;;;;;24.83;29.25;101123.41;5059332;28;45380;-59
2022/09/25 14:20:50;;;;;;;;;0.25;0.25;;;;;24.40;30.06;101109.50;5059536;28;45303;-59
2022/09/25 14:23:25;;;;;;;;;0.00;0.00;;;;;24.18;30.36;101115.28;5058359;28;46194;-58
2022/09/25 14:26:06;;;;;;;;;0.00;0.00;;;;;23.95;31.42;101117.53;5059563;28;45343;-59
2022/09/25 14:28:33;;;;;;;;;0.00;0.00;;;;;23.79;31.30;101118.13;5059818;28;45399;-58
2022/09/25 14:31:20;;;;;;;;;0.00;0.00;;;;;23.62;31.15;101114.25;5059500;28;46068;-58
2022/09/25 14:34:10;;;;;;;;;0.25;0.25;;;;;23.45;31.96;101119.56;5059372;28;46334;-58
2022/09/25 14:37:02;;;;;;;;;1.00;0.00;;;;;23.28;32.47;101119.28;5059166;28;45377;-59
2022/09/25 14:39:36;;;;;;;;;0.00;0.00;;;;;23.22;32.69;101111.63;5059055;28;45529;-59
2022/09/25 14:42:22;;;;;;;;;0.00;0.00;;;;;23.98;31.88;101109.03;5049378;28;45451;-58
2022/09/25 14:45:24;;;;;;;;;0.50;0.50;;;;;25.23;30.41;101100.22;5059161;28;46216;-58
2022/09/25 14:47:52;;;;;;;;;0.75;0.75;;;;;26.18;29.40;101113.22;5058976;28;45388;-58
2022/09/25 14:50:32;;;;;;;;;1.00;1.00;;;;;26.58;28.69;101099.72;5059372;28;45283;-59
2022/09/25 14:53:01;;;;;;;;;0.75;0.75;;;;;26.88;28.02;101091.94;5059040;28;45461;-58
2022/09/25 14:55:34;;;;;;;;;0.00;0.00;;;;;27.44;27.70;101100.31;5059227;28;45346;-58
2022/09/25 14:58:01;;;;;;;;;2.00;2.00;;;;;28.14;26.56;101097.88;5059419;28;45450;-58
2022/09/25 15:00:27;;;;;;;;;0.25;0.00;;;;;28.77;25.75;101085.13;5059201;28;45261;-59
2022/09/25 15:02:55;;;;;;;;;2.00;2.00;;;;;29.16;25.44;101088.69;5058937;28;45463;-58
2022/09/25 15:05:20;;;;;;;;;7.00;5.75;;;;;29.55;25.12;101079.47;5058880;28;46118;-58
2022/09/25 15:07:46;;;;;;;;;0.00;0.00;;;;;29.71;24.82;101057.19;5058891;28;45354;-58
2022/09/25 15:10:37;;;;;;;;;0.00;0.00;;;;;30.09;24.15;101070.00;5059266;28;45335;-58
2022/09/25 15:13:08;;;;;;;;;0.25;0.25;;;;;30.53;23.74;101085.78;5059200;28;45407;-59
2022/09/25 15:15:36;;;;;;;;;1.00;1.00;;;;;30.84;23.13;101088.28;5059015;28;45359;-59
2022/09/25 15:18:03;;;;;;;;;0.00;0.00;;;;;31.11;23.21;101078.41;5040413;28;45296;-59
2022/09/25 15:20:31;;;;;;;;;1.00;1.00;;;;;30.90;23.73;101068.13;5059218;28;45348;-67
2022/09/25 15:23:02;;;;;;;;;1.00;1.00;;;;;30.40;24.13;101074.47;5058840;28;45345;-61
2022/09/25 15:25:31;;;;;;;;;0.00;0.00;;;;;29.76;25.61;101082.38;5059010;28;46570;-62
2022/09/25 15:27:58;;;;;;;;;0.00;0.00;;;;;29.07;26.41;101070.47;5058152;28;45360;-64
2022/09/25 15:30:25;;;;;;;;;0.00;0.00;;;;;28.48;26.69;101081.09;5051220;28;45513;-61
2022/09/25 15:32:53;;;;;;;;;1.00;1.00;;;;;27.78;27.32;101080.03;5058446;28;45244;-60
2022/09/25 15:35:23;;;;;;;;;0.50;0.50;;;;;27.20;28.26;101081.00;5058987;28;46271;-60
2022/09/25 15:38:00;;;;;;;;;2.00;2.00;;;;;26.67;29.12;101082.22;5058613;28;45881;-60
2022/09/25 15:40:28;;;;;;;;;4.75;4.75;;;;;26.04;29.22;101076.19;5058890;28;45439;-59
2022/09/25 15:42:54;;;;;;;;;22.75;19.75;;;;;25.48;30.88;101079.34;5058588;28;45218;-60
2022/09/25 15:45:42;;;;;;;;;2.75;2.75;;;;;25.16;31.16;101082.66;5058359;28;46374;-60
2022/09/25 15:48:20;;;;;;;;;2.75;1.00;;;;;24.77;31.52;101082.00;5058547;28;45425;-60
2022/09/25 15:50:47;;;;;;;;;2.00;0.00;;;;;24.46;32.64;101092.44;5058499;28;45358;-59
2022/09/25 15:53:32;;;;;;;;;0.25;0.25;;;;;24.01;34.18;101095.88;5058070;28;45427;-60
2022/09/25 15:56:17;;;;;;;;;0.50;0.50;;;;;23.61;35.04;101103.44;5058103;28;46266;-60
2022/09/25 15:58:52;;;;;;;;;1.25;0.00;;;;;23.31;36.18;101112.63;5058479;28;45349;-60
2022/09/25 16:06:56;;;;;;;;;0.00;0.00;;;;;21.68;39.58;101100.06;5053220;28;45418;-60
2022/09/25 16:09:23;;;;;;;;;1.00;1.00;;;;;21.40;40.54;101109.72;5058103;28;45350;-59
2022/09/25 16:11:48;;;;;;;;;0.00;0.00;;;;;21.18;41.05;101106.25;5057412;28;45394;-64
2022/09/25 16:14:28;;;;;;;;;0.50;0.50;;;;;20.95;41.85;101106.25;5058361;28;45464;-61
2022/09/25 16:16:56;;;;;;;;;0.00;0.00;;;;;20.80;42.28;101099.38;5058240;28;47409;-51
2022/09/25 16:19:21;;;;;;;;;0.50;0.50;;;;;20.66;41.76;101108.69;5057524;28;45405;-55
2022/09/25 16:21:47;;;;;;;;;0.00;0.00;;;;;20.61;42.35;101118.22;5058466;28;45416;-52
2022/09/25 16:24:24;;;;;;;;;0.00;0.00;;;;;20.60;43.42;101128.25;5056316;28;45338;-54
2022/09/25 16:26:57;;;;;;;;;1.50;1.50;;;;;20.59;44.81;101128.38;5055654;28;46153;-56
2022/09/25 16:29:25;;;;;;;;;2.00;1.00;;;;;20.54;45.80;101123.31;5055777;28;45585;-56
2022/09/25 16:31:53;;;;;;;;;1.00;1.00;;;;;20.51;47.34;101130.84;5058762;28;45416;-55
2022/09/25 16:34:31;;;;;;;;;1.00;1.00;;;;;20.49;47.44;101135.59;5059251;28;46214;-51
2022/09/25 16:36:59;;;;;;;;;5.75;5.75;;;;;20.40;49.00;101129.03;5059415;28;46258;-57
2022/09/25 16:39:28;;;;;;;;;3.00;3.00;;;;;20.32;49.66;101121.44;5060961;28;45379;-54
2022/09/25 16:41:53;;;;;;;;;2.50;1.00;;;;;20.30;49.98;101125.25;5061722;28;45308;-53
2022/09/25 16:44:20;;;;;;;;;1.50;1.50;;;;;20.25;50.96;101133.78;5061320;28;45444;-55
2022/09/25 16:46:51;;;;;;;;;8.75;7.75;;;;;20.20;50.14;101125.13;5061252;28;46443;-56
2022/09/25 16:49:19;;;;;;;;;8.25;7.75;;;;;20.15;49.01;101131.94;5061566;28;45428;-52
2022/09/25 16:51:45;;;;;;;;;3.00;3.00;;;;;20.11;49.46;101130.44;5061518;28;45530;-54
2022/09/25 16:54:14;;;;;;;;;2.00;2.00;;;;;20.01;50.05;101131.16;5061382;28;45498;-56
2022/09/25 16:56:41;;;;;;;;;1.25;1.25;;;;;20.00;50.16;101134.88;5061143;28;45247;-55
2022/09/25 16:59:18;;;;;;;;;2.00;2.00;;;;;19.97;51.14;101134.28;5061275;28;45423;-55
2022/09/25 17:01:45;;;;;;;;;3.50;3.50;;;;;19.96;50.85;101129.81;5061149;28;45371;-54
2022/09/25 17:04:12;;;;;;;;;2.00;2.00;;;;;19.96;50.75;101127.09;5061073;28;45488;-54
2022/09/25 17:06:39;;;;;;;;;2.00;2.00;;;;;19.92;50.71;101125.56;5060946;28;46269;-54
2022/09/25 17:09:11;;;;;;;;;2.75;2.75;;;;;19.94;51.21;101127.19;5060807;28;45289;-49
2022/09/25 17:11:38;;;;;;;;;5.25;4.25;;;;;19.91;51.04;101127.44;5061346;28;45284;-53
2022/09/25 17:14:05;;;;;;;;;6.25;4.00;;;;;19.87;50.72;101120.50;5047622;28;45320;-52
2022/09/25 17:16:31;;;;;;;;;4.00;4.00;;;;;19.92;50.68;101129.16;5060471;28;46324;-52
2022/09/25 17:18:56;;;;;;;;;4.00;4.00;;;;;19.93;51.40;101130.03;5061214;28;45502;-54
2022/09/25 17:21:22;;;;;;;;;2.25;2.25;;;;;19.90;50.19;101131.16;5061628;28;45441;-53
2022/09/25 17:23:47;;;;;;;;;1.00;1.00;;;;;19.90;50.75;101123.00;5060934;28;45244;-55
2022/09/25 17:26:12;;;;;;;;;5.50;3.50;;;;;19.88;50.10;101132.28;5060964;28;45368;-53
2022/09/25 17:28:37;;;;;;;;;3.00;3.00;;;;;19.84;49.45;101134.34;5060994;28;45335;-50
2022/09/25 17:31:03;;;;;;;;;2.50;2.50;;;;;19.82;49.68;101133.59;5060770;28;45576;-54
2022/09/25 17:33:31;;;;;;;;;2.00;2.00;;;;;19.83;49.27;101150.78;5060687;28;45529;-53
2022/09/25 17:36:05;;;;;;;;;2.25;2.25;;;;;19.79;49.21;101144.75;5060483;28;45304;-54
2022/09/25 17:38:31;;;;;;;;;1.25;1.25;;;;;19.75;49.05;101145.09;5060746;28;45281;-54
2022/09/25 17:40:58;;;;;;;;;3.00;3.00;;;;;19.76;50.34;101150.41;5060612;28;45396;-50
2022/09/25 17:43:24;;;;;;;;;7.75;6.00;;;;;19.54;51.99;101153.94;5060314;28;45269;-57
2022/09/25 17:45:54;;;;;;;;;4.00;4.00;;;;;19.33;52.76;101150.09;5060166;28;46208;-58
2022/09/25 17:48:23;;;;;;;;;6.00;5.00;;;;;19.19;53.81;101151.16;5060065;28;45323;-56
2022/09/25 17:50:51;;;;;;;;;2.75;2.75;;;;;19.13;53.71;101151.63;5060851;28;45261;-54
2022/09/25 17:53:19;;;;;;;;;4.00;4.00;;;;;19.08;55.06;101153.78;5060375;28;45494;-54
2022/09/25 17:55:49;;;;;;;;;2.75;2.75;;;;;19.00;53.23;101149.91;5060308;28;46135;-56
2022/09/25 17:58:15;;;;;;;;;4.00;4.00;;;;;18.98;53.29;101160.88;5060136;28;45356;-54
2022/09/25 18:00:42;;;;;;;;;2.00;2.00;;;;;18.80;53.06;101159.53;5060515;28;45442;-57
2022/09/25 18:03:07;;;;;;;;;3.25;3.25;;;;;18.78;53.83;101165.09;5053006;28;45693;-57
2022/09/25 18:05:32;;;;;;;;;2.00;2.00;;;;;18.73;51.98;101150.97;5058193;28;47034;-62
2022/09/25 18:07:58;;;;;;;;;2.50;2.00;;;;;18.65;51.70;101150.66;5053908;28;45431;-60
2022/09/25 18:10:27;;;;;;;;;2.00;2.00;;;;;18.63;51.34;101160.75;5052808;28;45300;-61
2022/09/25 18:12:54;;;;;;;;;1.75;1.75;;;;;18.63;50.35;101151.78;5059192;28;45423;-61
2022/09/25 18:15:20;;;;;;;;;1.25;1.25;;;;;18.52;50.40;101149.78;5059628;28;46430;-62
2022/09/25 18:17:45;;;;;;;;;2.00;2.00;;;;;18.45;49.87;101153.94;5058805;28;45398;-62
2022/09/25 18:22:55;;;;;;;;;3.00;3.00;;;;;18.41;49.66;101152.41;5059792;28;45352;-62
2022/09/25 18:25:20;;;;;;;;;3.00;3.00;;;;;18.40;50.52;101150.66;5058825;28;45382;-62
2022/09/25 18:27:46;;;;;;;;;3.00;3.00;;;;;18.34;50.04;101140.25;5059765;28;45316;-63
2022/09/25 18:30:15;;;;;;;;;3.25;1.75;;;;;18.32;49.96;101153.94;5059969;28;45415;-63
2022/09/25 18:32:41;;;;;;;;;3.50;3.50;;;;;18.35;50.13;101150.16;5058649;28;45376;-64
2022/09/25 18:35:08;;;;;;;;;2.25;2.25;;;;;18.31;50.42;101149.47;5041238;28;46147;-65
2022/09/25 18:37:33;;;;;;;;;2.00;2.00;;;;;18.26;50.25;101145.38;5058363;28;45401;-67
2022/09/25 18:39:59;;;;;;;;;1.75;1.75;;;;;18.31;50.29;101152.19;5057469;28;45418;-64
2022/09/25 18:42:24;;;;;;;;;2.00;2.00;;;;;18.24;50.42;101141.91;5041278;28;46902;-61
2022/09/25 18:44:50;;;;;;;;;1.00;1.00;;;;;18.24;49.59;101153.63;5050581;28;47759;-61
2022/09/25 18:47:15;;;;;;;;;2.00;2.00;;;;;18.17;50.25;101149.63;5058619;28;45389;-62
2022/09/25 18:49:42;;;;;;;;;2.50;2.25;;;;;18.17;50.02;101157.75;5059532;28;45524;-62
2022/09/25 18:52:08;;;;;;;;;2.25;2.25;;;;;18.09;50.37;101161.00;5059292;28;45461;-61
2022/09/25 18:54:33;;;;;;;;;2.00;2.00;;;;;18.00;50.05;101160.78;5047285;28;46470;-62
2022/09/25 18:56:59;;;;;;;;;2.25;2.25;;;;;17.93;50.60;101152.22;5044491;28;45340;-62
2022/09/25 18:59:27;;;;;;;;;3.50;3.00;;;;;17.93;50.53;101157.63;5048092;28;45388;-62
2022/09/25 19:01:54;;;;;;;;;2.25;2.25;;;;;17.89;50.72;101157.94;5044549;28;45730;-61
2022/09/25 19:04:20;;;;;;;;;3.25;3.25;;;;;17.83;50.82;101161.97;5057013;28;46297;-60
2022/09/25 19:06:46;;;;;;;;;2.00;2.00;;;;;17.81;50.98;101168.47;5059142;28;45462;-60
2022/09/25 19:09:12;;;;;;;;;3.00;3.00;;;;;17.66;51.10;101141.44;5066690;28;45529;-60
2022/09/25 19:11:37;;;;;;;;;1.00;1.00;;;;;17.74;51.67;101163.47;5051040;28;45498;-62
2022/09/25 19:14:03;;;;;;;;;2.25;2.25;;;;;17.71;51.21;101158.25;5056917;28;45404;-61
2022/09/25 19:16:29;;;;;;;;;1.00;1.00;;;;;17.68;52.02;101161.19;5057438;28;45423;-59
2022/09/25 19:18:54;;;;;;;;;2.25;2.25;;;;;17.64;51.92;101167.78;5058215;28;45448;-58
2022/09/25 19:21:21;;;;;;;;;2.25;2.25;;;;;17.61;52.02;101151.69;5058942;28;45304;-61
2022/09/25 19:23:48;;;;;;;;;2.00;2.00;;;;;17.62;52.38;101153.44;5072584;28;45371;-62
2022/09/25 19:26:16;;;;;;;;;2.75;2.75;;;;;17.69;52.15;101160.19;5059034;28;45304;-60
2022/09/25 19:28:41;;;;;;;;;3.00;3.00;;;;;17.62;52.00;101139.91;5058920;28;45373;-61
2022/09/25 19:31:14;;;;;;;;;6.00;3.25;;;;;17.72;52.10;101159.13;5058298;28;45370;-61
2022/09/25 19:33:39;;;;;;;;;4.50;4.50;;;;;17.69;51.68;101151.22;5046183;28;46366;-61
2022/09/25 19:36:09;;;;;;;;;3.00;3.00;;;;;17.74;51.56;101152.63;5058703;28;45323;-62
2022/09/25 19:38:36;;;;;;;;;3.00;2.75;;;;;17.75;51.36;101159.78;5058675;28;45882;-62
2022/09/25 19:41:03;;;;;;;;;4.00;3.00;;;;;17.71;51.49;101147.41;5058476;28;45233;-62
2022/09/25 19:43:33;;;;;;;;;2.25;2.25;;;;;17.63;51.29;101130.78;5058271;28;46400;-62
2022/09/25 19:45:58;;;;;;;;;4.00;2.00;;;;;17.75;51.37;101153.50;5058085;28;45314;-61
2022/09/25 19:48:23;;;;;;;;;3.00;3.00;;;;;17.72;51.35;101154.56;5058312;28;51996;-61
2022/09/25 19:50:49;;;;;;;;;2.25;2.25;;;;;17.72;51.01;101161.81;5058647;28;46643;-61
2022/09/25 19:53:15;;;;;;;;;2.75;2.00;;;;;17.63;51.21;101160.63;5058654;28;45328;-61
2022/09/25 19:55:41;;;;;;;;;2.25;1.00;;;;;17.57;51.63;101163.72;5058577;28;45352;-60
2022/09/25 19:58:08;;;;;;;;;2.00;2.00;;;;;17.57;51.43;101146.59;5057272;28;45256;-61
2022/09/25 20:00:34;;;;;;;;;2.25;2.25;;;;;17.55;51.66;101148.53;5057927;28;45334;-61
2022/09/25 20:03:00;;;;;;;;;4.00;3.00;;;;;17.49;51.50;101157.09;5055005;28;45352;-60
2022/09/25 20:05:25;;;;;;;;;3.00;3.00;;;;;17.55;52.02;101164.78;5048884;28;45323;-60
2022/09/25 20:07:50;;;;;;;;;3.50;3.50;;;;;17.57;51.83;101162.84;5062001;28;45315;-61
2022/09/25 20:10:16;;;;;;;;;8.75;8.75;;;;;17.51;52.08;101152.44;5061905;28;45548;-61
2022/09/25 20:12:42;;;;;;;;;2.00;2.00;;;;;17.50;51.66;101154.28;5058452;28;45502;-60
2022/09/25 20:15:08;;;;;;;;;2.00;2.00;;;;;17.53;51.55;101161.31;5051678;28;45433;-61
2022/09/25 20:17:33;;;;;;;;;2.75;2.75;;;;;17.44;51.49;101138.41;5061608;28;45501;-62
2022/09/25 20:19:58;;;;;;;;;2.00;2.00;;;;;17.47;51.00;101149.06;5061943;28;45503;-62
2022/09/25 20:22:24;;;;;;;;;1.25;1.25;;;;;17.38;50.76;101133.41;5056463;28;45987;-62
2022/09/25 20:24:50;;;;;;;;;3.50;2.25;;;;;17.31;50.77;101134.81;5061853;28;45257;-62
2022/09/25 20:27:15;;;;;;;;;4.00;1.75;;;;;17.30;50.97;101139.34;5061924;28;45309;-61
2022/09/25 20:29:41;;;;;;;;;3.50;2.75;;;;;17.29;51.08;101134.03;5061587;28;45545;-62
2022/09/25 20:32:06;;;;;;;;;1.25;1.25;;;;;17.30;50.62;101127.66;5061380;28;46024;-63
2022/09/25 20:34:31;;;;;;;;;2.00;2.00;;;;;17.20;50.79;101107.56;5061708;28;45334;-64
2022/09/25 20:36:56;;;;;;;;;4.00;2.00;;;;;17.22;50.79;101111.03;5061595;28;45536;-63
2022/09/25 20:39:22;;;;;;;;;2.00;2.00;;;;;17.25;50.70;101121.69;5061550;28;48746;-62
2022/09/25 20:41:49;;;;;;;;;1.00;1.00;;;;;17.26;50.31;101121.59;5061273;28;46333;-61
2022/09/25 20:44:14;;;;;;;;;2.00;2.00;;;;;17.14;50.79;101099.84;5061177;28;45367;-60
2022/09/25 20:46:40;;;;;;;;;2.25;2.25;;;;;17.21;51.22;101104.75;5056103;28;45476;-61
2022/09/25 20:49:06;;;;;;;;;2.50;1.25;;;;;17.26;50.54;101112.59;5061592;28;45551;-60
2022/09/25 20:51:34;;;;;;;;;3.00;1.75;;;;;17.27;50.83;101117.88;5061733;28;45731;-61
2022/09/25 20:54:07;;;;;;;;;2.50;2.00;;;;;17.27;50.85;101117.00;5061956;28;45334;-60
2022/09/25 20:56:35;;;;;;;;;2.00;2.00;;;;;17.16;51.33;101116.88;5061566;28;45337;-61
2022/09/25 20:59:01;;;;;;;;;2.00;2.00;;;;;17.10;51.26;101122.72;5061502;28;45520;-59
